createdAt,value
2023-01-18T04:39:47.608Z,53.50
2023-01-18T04:50:23.487Z,54.60
2023-01-18T05:01:03.799Z,58.30
2023-01-18T05:11:39.420Z,66.30
2023-01-18T05:22:15.307Z,68.20
2023-01-18T05:32:51.092Z,71.30
2023-01-18T05:43:28.363Z,72.70
2023-01-18T05:54:03.976Z,74.80
2023-01-18T06:04:39.520Z,75.50
2023-01-18T06:15:15.578Z,77.50
2023-01-18T06:25:51.279Z,78.60
2023-01-18T06:36:29.281Z,80.00
2023-01-18T06:47:05.358Z,76.10
2023-01-18T06:57:41.444Z,76.70
2023-01-18T07:08:17.584Z,76.90
2023-01-18T07:18:53.448Z,75.60
2023-01-18T07:29:29.153Z,80.10
2023-01-18T07:40:05.322Z,85.90
2023-01-18T07:50:41.325Z,86.90
2023-01-18T08:01:20.109Z,78.90
2023-01-18T08:11:56.067Z,74.10
2023-01-18T08:22:32.490Z,71.10
2023-01-18T08:33:08.346Z,71.20
2023-01-18T08:43:45.179Z,61.90
2023-01-18T08:54:20.515Z,60.50
2023-01-18T09:04:56.491Z,53.80
2023-01-18T09:15:32.635Z,46.80
2023-01-18T09:26:16.796Z,40.60
2023-01-18T09:36:52.771Z,35.40
2023-01-18T09:47:36.682Z,32.00
2023-01-18T09:58:53.424Z,34.60
2023-01-18T10:09:34.377Z,31.20
2023-01-18T10:20:40.913Z,30.10
2023-01-18T10:31:44.546Z,26.40
2023-01-18T10:42:47.858Z,23.20
2023-01-18T10:53:23.280Z,24.10
2023-01-18T11:04:07.461Z,20.80
2023-01-18T11:14:43.088Z,14.90
2023-01-18T11:25:19.115Z,16.40
2023-01-18T11:35:59.040Z,14.80
2023-01-18T11:46:42.550Z,15.50
2023-01-18T11:57:18.340Z,15.30
2023-01-18T12:08:18.983Z,14.20
2023-01-18T12:19:22.440Z,14.00
2023-01-18T12:30:37.065Z,12.70
2023-01-18T12:41:44.077Z,14.40
2023-01-18T12:52:22.284Z,14.40
2023-01-18T13:02:58.053Z,15.60
2023-01-18T13:13:35.717Z,15.40
2023-01-18T13:24:31.135Z,15.90
2023-01-18T13:35:33.145Z,17.70
2023-01-18T13:46:09.683Z,19.30
2023-01-18T13:57:09.502Z,19.80
2023-01-18T14:07:52.242Z,20.10
2023-01-18T14:18:30.160Z,20.80
2023-01-18T14:29:07.859Z,21.10
2023-01-18T14:39:43.468Z,21.50
2023-01-18T14:50:21.155Z,21.10
2023-01-18T15:00:57.195Z,26.50
2023-01-18T15:11:36.237Z,27.90
2023-01-18T15:22:14.642Z,28.00
2023-01-18T15:32:55.691Z,29.30
2023-01-18T15:43:34.988Z,30.50
2023-01-18T15:54:19.783Z,33.30
2023-01-18T16:05:10.156Z,37.30
2023-01-18T16:15:47.207Z,41.90
2023-01-18T16:26:29.144Z,46.40
2023-01-18T16:37:05.196Z,46.40
2023-01-18T16:47:40.703Z,47.40
2023-01-18T16:58:18.622Z,50.10
2023-01-18T17:08:54.237Z,56.60
2023-01-18T17:19:29.617Z,66.70
2023-01-18T17:30:06.647Z,63.70
2023-01-18T17:40:44.346Z,70.80
2023-01-18T17:51:20.915Z,81.80
2023-01-18T18:01:56.313Z,83.70
2023-01-18T18:12:33.782Z,87.70
2023-01-18T18:23:10.624Z,79.50
2023-01-18T18:33:46.437Z,87.80
2023-01-18T18:44:22.985Z,92.90
2023-01-18T18:54:58.808Z,90.00
2023-01-18T19:05:35.776Z,93.60
2023-01-18T19:16:11.914Z,99.90
2023-01-18T19:26:47.482Z,99.90
2023-01-18T19:37:22.982Z,99.90
2023-01-18T19:48:00.441Z,99.90
2023-01-18T19:58:37.829Z,99.90
2023-01-18T20:09:22.049Z,99.90
2023-01-18T20:19:58.833Z,99.90
2023-01-18T20:30:34.717Z,99.90
2023-01-18T20:41:10.796Z,99.90
2023-01-18T20:51:46.508Z,99.90
2023-01-18T21:02:22.589Z,99.90
2023-01-18T21:12:58.706Z,99.90
2023-01-18T21:23:39.203Z,76.30
2023-01-18T21:34:14.992Z,65.40
2023-01-18T21:45:08.854Z,66.80
2023-01-18T21:55:44.262Z,63.50
2023-01-18T22:06:20.144Z,58.80
2023-01-18T22:16:55.918Z,62.70
2023-01-18T22:27:32.117Z,65.50
